sensor_id;sensor_type;location;lat;lon;timestamp;P1;durP1;ratioP1;P2;durP2;ratioP2
64986;SDS011;67903;52.108;9.358;2023-06-22T00:00:23;9.57;;;8.75;;
64986;SDS011;67903;52.108;9.358;2023-06-22T00:03:08;9.65;;;8.75;;
64986;SDS011;67903;52.108;9.358;2023-06-22T00:05:55;9.40;;;8.60;;
64986;SDS011;67903;52.108;9.358;2023-06-22T00:08:41;10.75;;;9.68;;
64986;SDS011;67903;52.108;9.358;2023-06-22T00:11:27;10.02;;;9.07;;
64986;SDS011;67903;52.108;9.358;2023-06-22T00:14:13;10.80;;;9.00;;
64986;SDS011;67903;52.108;9.358;2023-06-22T00:17:00;10.23;;;8.90;;
64986;SDS011;67903;52.108;9.358;2023-06-22T00:19:49;10.15;;;9.25;;
64986;SDS011;67903;52.108;9.358;2023-06-22T00:22:38;9.35;;;8.45;;
64986;SDS011;67903;52.108;9.358;2023-06-22T00:25:25;10.23;;;9.32;;
64986;SDS011;67903;52.108;9.358;2023-06-22T00:28:10;10.43;;;9.57;;
64986;SDS011;67903;52.108;9.358;2023-06-22T00:30:56;10.57;;;9.68;;
64986;SDS011;67903;52.108;9.358;2023-06-22T00:33:43;10.43;;;9.50;;
64986;SDS011;67903;52.108;9.358;2023-06-22T00:36:29;11.23;;;10.13;;
64986;SDS011;67903;52.108;9.358;2023-06-22T00:39:15;10.82;;;9.93;;
64986;SDS011;67903;52.108;9.358;2023-06-22T00:42:01;11.50;;;10.40;;
64986;SDS011;67903;52.108;9.358;2023-06-22T00:44:48;12.10;;;11.00;;
64986;SDS011;67903;52.108;9.358;2023-06-22T00:47:34;11.00;;;9.90;;
64986;SDS011;67903;52.108;9.358;2023-06-22T00:50:22;11.55;;;10.55;;
64986;SDS011;67903;52.108;9.358;2023-06-22T00:53:08;12.15;;;11.05;;
64986;SDS011;67903;52.108;9.358;2023-06-22T00:55:56;11.45;;;10.32;;
64986;SDS011;67903;52.108;9.358;2023-06-22T00:58:46;11.43;;;10.27;;
64986;SDS011;67903;52.108;9.358;2023-06-22T01:01:34;11.43;;;10.45;;
64986;SDS011;67903;52.108;9.358;2023-06-22T01:04:33;12.02;;;10.93;;
64986;SDS011;67903;52.108;9.358;2023-06-22T01:07:27;12.07;;;10.38;;
64986;SDS011;67903;52.108;9.358;2023-06-22T01:10:21;11.88;;;10.75;;
64986;SDS011;67903;52.108;9.358;2023-06-22T01:13:16;13.10;;;11.95;;
64986;SDS011;67903;52.108;9.358;2023-06-22T01:16:07;12.45;;;10.85;;
64986;SDS011;67903;52.108;9.358;2023-06-22T01:18:57;11.50;;;10.43;;
64986;SDS011;67903;52.108;9.358;2023-06-22T01:21:45;11.45;;;10.45;;
64986;SDS011;67903;52.108;9.358;2023-06-22T01:24:33;12.00;;;10.90;;
64986;SDS011;67903;52.108;9.358;2023-06-22T01:30:42;11.90;;;10.63;;
64986;SDS011;67903;52.108;9.358;2023-06-22T01:33:29;11.85;;;10.65;;
64986;SDS011;67903;52.108;9.358;2023-06-22T01:36:16;10.93;;;9.82;;
64986;SDS011;67903;52.108;9.358;2023-06-22T01:39:03;12.48;;;10.60;;
64986;SDS011;67903;52.108;9.358;2023-06-22T01:41:50;10.88;;;9.98;;
64986;SDS011;67903;52.108;9.358;2023-06-22T01:44:36;11.80;;;10.80;;
64986;SDS011;67903;52.108;9.358;2023-06-22T01:47:26;10.77;;;9.88;;
64986;SDS011;67903;52.108;9.358;2023-06-22T01:50:12;12.25;;;10.98;;
64986;SDS011;67903;52.108;9.358;2023-06-22T01:52:58;11.18;;;10.18;;
64986;SDS011;67903;52.108;9.358;2023-06-22T01:55:45;12.10;;;11.00;;
64986;SDS011;67903;52.108;9.358;2023-06-22T01:58:31;11.27;;;9.60;;
64986;SDS011;67903;52.108;9.358;2023-06-22T02:01:19;10.98;;;9.95;;
64986;SDS011;67903;52.108;9.358;2023-06-22T02:04:09;10.55;;;9.48;;
64986;SDS011;67903;52.108;9.358;2023-06-22T02:06:58;10.45;;;9.55;;
64986;SDS011;67903;52.108;9.358;2023-06-22T02:09:45;10.35;;;9.45;;
64986;SDS011;67903;52.108;9.358;2023-06-22T02:12:32;10.68;;;9.77;;
64986;SDS011;67903;52.108;9.358;2023-06-22T02:15:20;11.30;;;10.10;;
64986;SDS011;67903;52.108;9.358;2023-06-22T02:18:11;10.85;;;9.95;;
64986;SDS011;67903;52.108;9.358;2023-06-22T02:20:57;11.30;;;10.20;;
64986;SDS011;67903;52.108;9.358;2023-06-22T02:23:44;11.77;;;10.77;;
64986;SDS011;67903;52.108;9.358;2023-06-22T02:26:31;11.15;;;10.25;;
64986;SDS011;67903;52.108;9.358;2023-06-22T02:29:19;10.95;;;9.85;;
64986;SDS011;67903;52.108;9.358;2023-06-22T02:32:05;10.80;;;9.80;;
64986;SDS011;67903;52.108;9.358;2023-06-22T02:34:52;10.75;;;9.63;;
64986;SDS011;67903;52.108;9.358;2023-06-22T02:37:41;10.02;;;9.13;;
64986;SDS011;67903;52.108;9.358;2023-06-22T02:40:27;10.73;;;9.63;;
64986;SDS011;67903;52.108;9.358;2023-06-22T02:43:14;11.45;;;10.25;;
64986;SDS011;67903;52.108;9.358;2023-06-22T02:46:01;11.27;;;10.20;;
64986;SDS011;67903;52.108;9.358;2023-06-22T02:48:47;11.25;;;10.25;;
64986;SDS011;67903;52.108;9.358;2023-06-22T02:51:34;10.50;;;9.60;;
64986;SDS011;67903;52.108;9.358;2023-06-22T02:54:20;12.07;;;10.82;;
64986;SDS011;67903;52.108;9.358;2023-06-22T02:57:08;11.18;;;10.13;;
64986;SDS011;67903;52.108;9.358;2023-06-22T02:59:59;11.13;;;10.13;;
64986;SDS011;67903;52.108;9.358;2023-06-22T03:02:47;10.77;;;9.73;;
64986;SDS011;67903;52.108;9.358;2023-06-22T03:05:34;10.73;;;9.63;;
64986;SDS011;67903;52.108;9.358;2023-06-22T03:08:21;11.80;;;10.68;;
64986;SDS011;67903;52.108;9.358;2023-06-22T03:11:07;11.38;;;10.38;;
64986;SDS011;67903;52.108;9.358;2023-06-22T03:13:54;11.40;;;10.40;;
64986;SDS011;67903;52.108;9.358;2023-06-22T03:16:40;11.35;;;10.25;;
64986;SDS011;67903;52.108;9.358;2023-06-22T03:19:26;11.38;;;10.18;;
64986;SDS011;67903;52.108;9.358;2023-06-22T03:22:14;10.63;;;9.65;;
64986;SDS011;67903;52.108;9.358;2023-06-22T03:25:00;11.63;;;10.60;;
64986;SDS011;67903;52.108;9.358;2023-06-22T03:27:47;11.20;;;10.02;;
64986;SDS011;67903;52.108;9.358;2023-06-22T03:30:33;10.85;;;9.75;;
64986;SDS011;67903;52.108;9.358;2023-06-22T03:33:19;11.05;;;10.00;;
64986;SDS011;67903;52.108;9.358;2023-06-22T03:36:07;10.50;;;9.40;;
64986;SDS011;67903;52.108;9.358;2023-06-22T03:38:54;11.35;;;10.02;;
64986;SDS011;67903;52.108;9.358;2023-06-22T03:41:40;11.40;;;9.88;;
64986;SDS011;67903;52.108;9.358;2023-06-22T03:44:26;11.15;;;9.95;;
64986;SDS011;67903;52.108;9.358;2023-06-22T03:47:12;10.40;;;9.30;;
64986;SDS011;67903;52.108;9.358;2023-06-22T03:49:59;10.13;;;9.23;;
64986;SDS011;67903;52.108;9.358;2023-06-22T03:52:46;10.90;;;9.80;;
64986;SDS011;67903;52.108;9.358;2023-06-22T03:55:33;10.73;;;9.73;;
64986;SDS011;67903;52.108;9.358;2023-06-22T03:58:20;11.10;;;9.90;;
64986;SDS011;67903;52.108;9.358;2023-06-22T04:01:07;9.77;;;8.77;;
64986;SDS011;67903;52.108;9.358;2023-06-22T04:03:56;11.25;;;9.77;;
64986;SDS011;67903;52.108;9.358;2023-06-22T04:06:43;10.65;;;9.63;;
64986;SDS011;67903;52.108;9.358;2023-06-22T04:09:29;13.77;;;11.00;;
64986;SDS011;67903;52.108;9.358;2023-06-22T04:12:15;10.43;;;9.45;;
64986;SDS011;67903;52.108;9.358;2023-06-22T04:15:01;11.32;;;9.00;;
64986;SDS011;67903;52.108;9.358;2023-06-22T04:17:47;12.10;;;10.10;;
64986;SDS011;67903;52.108;9.358;2023-06-22T04:20:33;12.95;;;9.88;;
64986;SDS011;67903;52.108;9.358;2023-06-22T04:23:19;12.25;;;11.05;;
64986;SDS011;67903;52.108;9.358;2023-06-22T04:26:05;11.60;;;10.52;;
64986;SDS011;67903;52.108;9.358;2023-06-22T04:28:51;11.60;;;10.50;;
64986;SDS011;67903;52.108;9.358;2023-06-22T04:31:40;11.77;;;10.57;;
64986;SDS011;67903;52.108;9.358;2023-06-22T04:34:26;11.80;;;10.65;;
64986;SDS011;67903;52.108;9.358;2023-06-22T04:37:12;11.18;;;10.10;;
64986;SDS011;67903;52.108;9.358;2023-06-22T04:40:00;11.48;;;10.25;;
64986;SDS011;67903;52.108;9.358;2023-06-22T04:42:49;11.88;;;10.10;;
64986;SDS011;67903;52.108;9.358;2023-06-22T04:45:39;11.00;;;10.00;;
64986;SDS011;67903;52.108;9.358;2023-06-22T04:48:25;11.48;;;10.38;;
64986;SDS011;67903;52.108;9.358;2023-06-22T04:51:17;13.82;;;10.88;;
64986;SDS011;67903;52.108;9.358;2023-06-22T04:54:07;12.00;;;10.75;;
64986;SDS011;67903;52.108;9.358;2023-06-22T04:56:53;11.68;;;9.90;;
64986;SDS011;67903;52.108;9.358;2023-06-22T04:59:42;10.75;;;9.65;;
64986;SDS011;67903;52.108;9.358;2023-06-22T05:02:29;10.43;;;9.40;;
64986;SDS011;67903;52.108;9.358;2023-06-22T05:05:16;10.63;;;9.52;;
64986;SDS011;67903;52.108;9.358;2023-06-22T05:08:03;11.40;;;9.65;;
64986;SDS011;67903;52.108;9.358;2023-06-22T05:10:51;10.88;;;9.73;;
64986;SDS011;67903;52.108;9.358;2023-06-22T05:13:49;12.27;;;10.77;;
64986;SDS011;67903;52.108;9.358;2023-06-22T05:16:36;10.93;;;9.63;;
64986;SDS011;67903;52.108;9.358;2023-06-22T05:19:22;12.68;;;11.02;;
64986;SDS011;67903;52.108;9.358;2023-06-22T05:22:07;14.35;;;10.00;;
64986;SDS011;67903;52.108;9.358;2023-06-22T05:24:53;11.77;;;10.18;;
64986;SDS011;67903;52.108;9.358;2023-06-22T05:27:41;13.60;;;10.13;;
64986;SDS011;67903;52.108;9.358;2023-06-22T05:30:29;11.93;;;10.77;;
64986;SDS011;67903;52.108;9.358;2023-06-22T05:33:15;16.13;;;11.27;;
64986;SDS011;67903;52.108;9.358;2023-06-22T05:36:01;14.25;;;10.93;;
64986;SDS011;67903;52.108;9.358;2023-06-22T05:38:47;12.35;;;9.95;;
64986;SDS011;67903;52.108;9.358;2023-06-22T05:41:33;14.02;;;10.98;;
64986;SDS011;67903;52.108;9.358;2023-06-22T05:44:19;12.90;;;10.45;;
64986;SDS011;67903;52.108;9.358;2023-06-22T05:47:05;13.00;;;10.65;;
64986;SDS011;67903;52.108;9.358;2023-06-22T05:49:52;13.27;;;11.90;;
64986;SDS011;67903;52.108;9.358;2023-06-22T05:52:38;16.58;;;11.73;;
64986;SDS011;67903;52.108;9.358;2023-06-22T05:55:24;16.88;;;11.43;;
64986;SDS011;67903;52.108;9.358;2023-06-22T05:58:10;14.75;;;11.30;;
64986;SDS011;67903;52.108;9.358;2023-06-22T06:00:56;13.43;;;11.02;;
64986;SDS011;67903;52.108;9.358;2023-06-22T06:03:42;13.43;;;12.10;;
64986;SDS011;67903;52.108;9.358;2023-06-22T06:06:29;13.20;;;11.43;;
64986;SDS011;67903;52.108;9.358;2023-06-22T06:09:15;13.10;;;11.18;;
64986;SDS011;67903;52.108;9.358;2023-06-22T06:12:01;13.30;;;12.10;;
64986;SDS011;67903;52.108;9.358;2023-06-22T06:14:48;13.73;;;12.52;;
64986;SDS011;67903;52.108;9.358;2023-06-22T06:17:44;13.70;;;11.70;;
64986;SDS011;67903;52.108;9.358;2023-06-22T06:20:30;13.52;;;12.13;;
64986;SDS011;67903;52.108;9.358;2023-06-22T06:23:16;13.00;;;11.82;;
64986;SDS011;67903;52.108;9.358;2023-06-22T06:26:02;13.40;;;12.10;;
64986;SDS011;67903;52.108;9.358;2023-06-22T06:28:51;12.48;;;11.23;;
64986;SDS011;67903;52.108;9.358;2023-06-22T06:31:38;12.32;;;10.98;;
64986;SDS011;67903;52.108;9.358;2023-06-22T06:34:24;13.30;;;11.80;;
64986;SDS011;67903;52.108;9.358;2023-06-22T06:37:10;15.10;;;11.60;;
64986;SDS011;67903;52.108;9.358;2023-06-22T06:39:56;12.07;;;11.05;;
64986;SDS011;67903;52.108;9.358;2023-06-22T06:42:43;13.73;;;11.73;;
64986;SDS011;67903;52.108;9.358;2023-06-22T06:45:30;13.00;;;11.80;;
64986;SDS011;67903;52.108;9.358;2023-06-22T06:48:17;13.98;;;12.48;;
64986;SDS011;67903;52.108;9.358;2023-06-22T06:51:03;13.50;;;12.20;;
64986;SDS011;67903;52.108;9.358;2023-06-22T06:53:49;14.05;;;11.90;;
64986;SDS011;67903;52.108;9.358;2023-06-22T06:56:35;12.63;;;11.48;;
64986;SDS011;67903;52.108;9.358;2023-06-22T06:59:21;12.52;;;11.13;;
64986;SDS011;67903;52.108;9.358;2023-06-22T07:02:07;12.90;;;11.40;;
64986;SDS011;67903;52.108;9.358;2023-06-22T07:04:53;13.15;;;11.85;;
64986;SDS011;67903;52.108;9.358;2023-06-22T07:07:42;16.92;;;12.60;;
64986;SDS011;67903;52.108;9.358;2023-06-22T07:10:28;15.55;;;12.50;;
64986;SDS011;67903;52.108;9.358;2023-06-22T07:13:15;16.13;;;12.43;;
64986;SDS011;67903;52.108;9.358;2023-06-22T07:16:01;13.93;;;12.45;;
64986;SDS011;67903;52.108;9.358;2023-06-22T07:18:47;13.00;;;11.20;;
64986;SDS011;67903;52.108;9.358;2023-06-22T07:21:34;13.90;;;11.32;;
64986;SDS011;67903;52.108;9.358;2023-06-22T07:24:20;14.43;;;12.07;;
64986;SDS011;67903;52.108;9.358;2023-06-22T07:27:06;13.88;;;12.48;;
64986;SDS011;67903;52.108;9.358;2023-06-22T07:29:52;14.57;;;13.18;;
64986;SDS011;67903;52.108;9.358;2023-06-22T07:32:40;14.15;;;12.85;;
64986;SDS011;67903;52.108;9.358;2023-06-22T07:35:27;13.95;;;12.75;;
64986;SDS011;67903;52.108;9.358;2023-06-22T07:38:13;15.65;;;12.65;;
64986;SDS011;67903;52.108;9.358;2023-06-22T07:41:00;15.95;;;14.45;;
64986;SDS011;67903;52.108;9.358;2023-06-22T07:43:50;13.70;;;12.43;;
64986;SDS011;67903;52.108;9.358;2023-06-22T07:46:36;13.70;;;12.50;;
64986;SDS011;67903;52.108;9.358;2023-06-22T07:49:22;13.77;;;12.57;;
64986;SDS011;67903;52.108;9.358;2023-06-22T07:52:07;13.73;;;12.52;;
64986;SDS011;67903;52.108;9.358;2023-06-22T07:54:54;15.10;;;13.70;;
64986;SDS011;67903;52.108;9.358;2023-06-22T07:57:40;14.38;;;13.07;;
64986;SDS011;67903;52.108;9.358;2023-06-22T08:00:27;13.80;;;12.40;;
64986;SDS011;67903;52.108;9.358;2023-06-22T08:03:13;13.60;;;12.30;;
64986;SDS011;67903;52.108;9.358;2023-06-22T08:05:59;14.35;;;12.98;;
64986;SDS011;67903;52.108;9.358;2023-06-22T08:08:45;14.05;;;12.77;;
64986;SDS011;67903;52.108;9.358;2023-06-22T08:11:33;13.90;;;12.60;;
64986;SDS011;67903;52.108;9.358;2023-06-22T08:14:19;13.98;;;12.77;;
64986;SDS011;67903;52.108;9.358;2023-06-22T08:17:05;14.85;;;13.35;;
64986;SDS011;67903;52.108;9.358;2023-06-22T08:19:52;14.07;;;12.68;;
64986;SDS011;67903;52.108;9.358;2023-06-22T08:22:38;14.30;;;12.38;;
64986;SDS011;67903;52.108;9.358;2023-06-22T08:25:24;14.00;;;12.80;;
64986;SDS011;67903;52.108;9.358;2023-06-22T08:28:11;14.77;;;13.23;;
64986;SDS011;67903;52.108;9.358;2023-06-22T08:30:59;13.63;;;12.43;;
64986;SDS011;67903;52.108;9.358;2023-06-22T08:33:46;14.70;;;13.40;;
64986;SDS011;67903;52.108;9.358;2023-06-22T08:36:34;14.57;;;13.07;;
64986;SDS011;67903;52.108;9.358;2023-06-22T08:39:22;13.63;;;12.43;;
64986;SDS011;67903;52.108;9.358;2023-06-22T08:42:08;12.65;;;11.55;;
64986;SDS011;67903;52.108;9.358;2023-06-22T08:44:54;12.05;;;10.90;;
64986;SDS011;67903;52.108;9.358;2023-06-22T08:47:40;12.25;;;11.18;;
64986;SDS011;67903;52.108;9.358;2023-06-22T08:50:26;11.98;;;10.82;;
64986;SDS011;67903;52.108;9.358;2023-06-22T08:53:13;12.35;;;11.32;;
64986;SDS011;67903;52.108;9.358;2023-06-22T08:55:59;12.93;;;11.73;;
64986;SDS011;67903;52.108;9.358;2023-06-22T08:58:45;13.43;;;12.00;;
64986;SDS011;67903;52.108;9.358;2023-06-22T09:01:30;12.88;;;11.60;;
64986;SDS011;67903;52.108;9.358;2023-06-22T09:04:16;12.45;;;11.35;;
64986;SDS011;67903;52.108;9.358;2023-06-22T09:07:03;11.52;;;10.43;;
64986;SDS011;67903;52.108;9.358;2023-06-22T09:09:49;10.88;;;9.95;;
64986;SDS011;67903;52.108;9.358;2023-06-22T09:12:35;12.05;;;10.68;;
64986;SDS011;67903;52.108;9.358;2023-06-22T09:15:22;11.65;;;10.73;;
64986;SDS011;67903;52.108;9.358;2023-06-22T09:18:12;11.70;;;10.70;;
64986;SDS011;67903;52.108;9.358;2023-06-22T09:20:59;11.80;;;10.80;;
64986;SDS011;67903;52.108;9.358;2023-06-22T09:23:45;11.93;;;10.95;;
64986;SDS011;67903;52.108;9.358;2023-06-22T09:26:35;12.90;;;11.70;;
64986;SDS011;67903;52.108;9.358;2023-06-22T09:29:20;11.65;;;10.65;;
64986;SDS011;67903;52.108;9.358;2023-06-22T09:32:07;12.80;;;11.60;;
64986;SDS011;67903;52.108;9.358;2023-06-22T09:34:53;11.73;;;10.75;;
64986;SDS011;67903;52.108;9.358;2023-06-22T09:37:40;11.35;;;10.25;;
64986;SDS011;67903;52.108;9.358;2023-06-22T09:40:26;11.00;;;10.05;;
64986;SDS011;67903;52.108;9.358;2023-06-22T09:43:13;11.50;;;10.40;;
64986;SDS011;67903;52.108;9.358;2023-06-22T09:45:59;10.77;;;9.88;;
64986;SDS011;67903;52.108;9.358;2023-06-22T09:48:45;12.10;;;10.98;;
64986;SDS011;67903;52.108;9.358;2023-06-22T09:51:30;11.40;;;10.40;;
64986;SDS011;67903;52.108;9.358;2023-06-22T09:54:16;12.15;;;11.05;;
64986;SDS011;67903;52.108;9.358;2023-06-22T09:57:02;12.20;;;11.10;;
64986;SDS011;67903;52.108;9.358;2023-06-22T09:59:48;11.48;;;10.48;;
64986;SDS011;67903;52.108;9.358;2023-06-22T10:02:35;10.50;;;9.50;;
64986;SDS011;67903;52.108;9.358;2023-06-22T10:05:21;11.68;;;10.75;;
64986;SDS011;67903;52.108;9.358;2023-06-22T10:08:08;11.65;;;10.65;;
64986;SDS011;67903;52.108;9.358;2023-06-22T10:10:54;12.68;;;11.48;;
64986;SDS011;67903;52.108;9.358;2023-06-22T10:13:40;13.35;;;12.05;;
64986;SDS011;67903;52.108;9.358;2023-06-22T10:16:32;12.65;;;11.55;;
64986;SDS011;67903;52.108;9.358;2023-06-22T10:19:20;12.93;;;11.88;;
64986;SDS011;67903;52.108;9.358;2023-06-22T10:22:06;13.18;;;12.00;;
64986;SDS011;67903;52.108;9.358;2023-06-22T10:24:52;14.43;;;12.57;;
64986;SDS011;67903;52.108;9.358;2023-06-22T10:27:38;12.50;;;11.43;;
64986;SDS011;67903;52.108;9.358;2023-06-22T10:30:25;13.13;;;11.95;;
64986;SDS011;67903;52.108;9.358;2023-06-22T10:33:11;13.88;;;12.45;;
64986;SDS011;67903;52.108;9.358;2023-06-22T10:35:57;12.93;;;11.73;;
64986;SDS011;67903;52.108;9.358;2023-06-22T10:38:43;12.95;;;11.85;;
64986;SDS011;67903;52.108;9.358;2023-06-22T10:41:30;15.77;;;12.45;;
64986;SDS011;67903;52.108;9.358;2023-06-22T10:44:16;13.13;;;11.80;;
64986;SDS011;67903;52.108;9.358;2023-06-22T10:47:02;13.13;;;11.80;;
64986;SDS011;67903;52.108;9.358;2023-06-22T10:49:48;11.48;;;10.27;;
64986;SDS011;67903;52.108;9.358;2023-06-22T10:52:35;12.02;;;10.95;;
64986;SDS011;67903;52.108;9.358;2023-06-22T10:55:21;11.98;;;10.98;;
64986;SDS011;67903;52.108;9.358;2023-06-22T10:58:07;12.63;;;11.38;;
64986;SDS011;67903;52.108;9.358;2023-06-22T11:00:55;11.93;;;10.93;;
64986;SDS011;67903;52.108;9.358;2023-06-22T11:03:41;12.60;;;11.40;;
64986;SDS011;67903;52.108;9.358;2023-06-22T11:06:27;11.30;;;10.40;;
64986;SDS011;67903;52.108;9.358;2023-06-22T11:09:13;11.38;;;10.38;;
64986;SDS011;67903;52.108;9.358;2023-06-22T11:12:07;10.70;;;9.80;;
64986;SDS011;67903;52.108;9.358;2023-06-22T11:14:53;10.88;;;9.93;;
64986;SDS011;67903;52.108;9.358;2023-06-22T11:17:44;11.57;;;10.57;;
64986;SDS011;67903;52.108;9.358;2023-06-22T11:20:30;11.10;;;10.13;;
64986;SDS011;67903;52.108;9.358;2023-06-22T11:23:18;11.02;;;9.93;;
64986;SDS011;67903;52.108;9.358;2023-06-22T11:26:04;9.80;;;8.90;;
64986;SDS011;67903;52.108;9.358;2023-06-22T11:28:50;10.23;;;9.23;;
64986;SDS011;67903;52.108;9.358;2023-06-22T11:31:36;10.32;;;9.30;;
64986;SDS011;67903;52.108;9.358;2023-06-22T11:34:23;9.93;;;8.93;;
64986;SDS011;67903;52.108;9.358;2023-06-22T11:37:09;9.70;;;8.80;;
64986;SDS011;67903;52.108;9.358;2023-06-22T11:39:56;9.15;;;8.02;;
64986;SDS011;67903;52.108;9.358;2023-06-22T11:42:50;10.30;;;9.40;;
64986;SDS011;67903;52.108;9.358;2023-06-22T11:45:37;10.77;;;9.70;;
64986;SDS011;67903;52.108;9.358;2023-06-22T11:48:23;10.60;;;9.70;;
64986;SDS011;67903;52.108;9.358;2023-06-22T11:51:09;10.55;;;9.43;;
64986;SDS011;67903;52.108;9.358;2023-06-22T11:53:56;10.45;;;9.52;;
64986;SDS011;67903;52.108;9.358;2023-06-22T11:56:42;10.70;;;9.65;;
64986;SDS011;67903;52.108;9.358;2023-06-22T11:59:29;10.90;;;9.85;;
64986;SDS011;67903;52.108;9.358;2023-06-22T12:02:15;11.18;;;10.07;;
64986;SDS011;67903;52.108;9.358;2023-06-22T12:05:01;10.55;;;9.50;;
64986;SDS011;67903;52.108;9.358;2023-06-22T12:07:50;10.38;;;9.48;;
64986;SDS011;67903;52.108;9.358;2023-06-22T12:10:38;10.77;;;9.88;;
64986;SDS011;67903;52.108;9.358;2023-06-22T12:13:24;11.30;;;10.20;;
64986;SDS011;67903;52.108;9.358;2023-06-22T12:16:10;10.13;;;9.23;;
64986;SDS011;67903;52.108;9.358;2023-06-22T12:18:57;10.88;;;9.77;;
64986;SDS011;67903;52.108;9.358;2023-06-22T12:21:43;10.98;;;9.98;;
64986;SDS011;67903;52.108;9.358;2023-06-22T12:24:31;12.20;;;10.95;;
64986;SDS011;67903;52.108;9.358;2023-06-22T12:27:17;13.32;;;11.82;;
64986;SDS011;67903;52.108;9.358;2023-06-22T12:30:03;14.10;;;12.63;;
64986;SDS011;67903;52.108;9.358;2023-06-22T12:32:50;14.52;;;13.15;;
64986;SDS011;67903;52.108;9.358;2023-06-22T12:35:38;13.93;;;12.60;;
64986;SDS011;67903;52.108;9.358;2023-06-22T12:38:24;14.30;;;13.02;;
64986;SDS011;67903;52.108;9.358;2023-06-22T12:41:11;14.73;;;13.23;;
64986;SDS011;67903;52.108;9.358;2023-06-22T12:43:57;15.13;;;13.73;;
64986;SDS011;67903;52.108;9.358;2023-06-22T12:46:43;14.85;;;13.55;;
64986;SDS011;67903;52.108;9.358;2023-06-22T12:49:30;15.70;;;14.13;;
64986;SDS011;67903;52.108;9.358;2023-06-22T12:52:16;15.57;;;14.18;;
64986;SDS011;67903;52.108;9.358;2023-06-22T12:55:02;16.58;;;14.88;;
64986;SDS011;67903;52.108;9.358;2023-06-22T12:57:48;17.00;;;15.30;;
64986;SDS011;67903;52.108;9.358;2023-06-22T13:00:33;15.73;;;14.13;;
64986;SDS011;67903;52.108;9.358;2023-06-22T13:03:20;16.38;;;14.77;;
64986;SDS011;67903;52.108;9.358;2023-06-22T13:06:06;15.98;;;14.48;;
64986;SDS011;67903;52.108;9.358;2023-06-22T13:08:52;16.60;;;15.20;;
64986;SDS011;67903;52.108;9.358;2023-06-22T13:11:42;17.00;;;15.50;;
64986;SDS011;67903;52.108;9.358;2023-06-22T13:14:28;16.75;;;15.30;;
64986;SDS011;67903;52.108;9.358;2023-06-22T13:17:15;17.02;;;15.48;;
64986;SDS011;67903;52.108;9.358;2023-06-22T13:20:01;16.85;;;15.25;;
64986;SDS011;67903;52.108;9.358;2023-06-22T13:22:49;17.65;;;16.05;;
64986;SDS011;67903;52.108;9.358;2023-06-22T13:25:35;17.60;;;16.10;;
64986;SDS011;67903;52.108;9.358;2023-06-22T13:28:21;18.08;;;16.25;;
64986;SDS011;67903;52.108;9.358;2023-06-22T13:31:13;18.08;;;16.45;;
64986;SDS011;67903;52.108;9.358;2023-06-22T13:33:59;18.20;;;16.45;;
64986;SDS011;67903;52.108;9.358;2023-06-22T13:36:45;18.80;;;17.20;;
64986;SDS011;67903;52.108;9.358;2023-06-22T13:39:31;19.15;;;17.52;;
64986;SDS011;67903;52.108;9.358;2023-06-22T13:42:17;19.65;;;17.88;;
64986;SDS011;67903;52.108;9.358;2023-06-22T13:45:04;20.90;;;19.00;;
64986;SDS011;67903;52.108;9.358;2023-06-22T13:47:51;19.88;;;18.08;;
64986;SDS011;67903;52.108;9.358;2023-06-22T13:50:37;19.05;;;17.40;;
64986;SDS011;67903;52.108;9.358;2023-06-22T13:53:24;21.75;;;19.77;;
64986;SDS011;67903;52.108;9.358;2023-06-22T13:56:11;19.38;;;17.70;;
64986;SDS011;67903;52.108;9.358;2023-06-22T13:58:57;19.90;;;17.83;;
64986;SDS011;67903;52.108;9.358;2023-06-22T14:01:43;20.77;;;18.98;;
64986;SDS011;67903;52.108;9.358;2023-06-22T14:04:29;18.77;;;17.02;;
64986;SDS011;67903;52.108;9.358;2023-06-22T14:07:16;18.90;;;17.20;;
64986;SDS011;67903;52.108;9.358;2023-06-22T14:10:04;17.98;;;16.38;;
64986;SDS011;67903;52.108;9.358;2023-06-22T14:12:51;17.23;;;15.73;;
64986;SDS011;67903;52.108;9.358;2023-06-22T14:15:40;17.80;;;16.13;;
64986;SDS011;67903;52.108;9.358;2023-06-22T14:18:26;17.65;;;16.13;;
64986;SDS011;67903;52.108;9.358;2023-06-22T14:21:12;16.40;;;14.95;;
64986;SDS011;67903;52.108;9.358;2023-06-22T14:23:58;17.30;;;15.57;;
64986;SDS011;67903;52.108;9.358;2023-06-22T14:26:43;17.50;;;15.75;;
64986;SDS011;67903;52.108;9.358;2023-06-22T14:29:30;18.20;;;16.58;;
64986;SDS011;67903;52.108;9.358;2023-06-22T14:32:16;19.08;;;17.35;;
64986;SDS011;67903;52.108;9.358;2023-06-22T14:35:02;21.13;;;18.75;;
64986;SDS011;67903;52.108;9.358;2023-06-22T14:37:48;24.33;;;21.95;;
64986;SDS011;67903;52.108;9.358;2023-06-22T14:40:34;27.25;;;24.35;;
64986;SDS011;67903;52.108;9.358;2023-06-22T14:43:37;26.17;;;23.55;;
64986;SDS011;67903;52.108;9.358;2023-06-22T14:46:23;27.23;;;24.60;;
64986;SDS011;67903;52.108;9.358;2023-06-22T14:49:09;32.42;;;29.35;;
64986;SDS011;67903;52.108;9.358;2023-06-22T14:51:55;35.47;;;31.80;;
64986;SDS011;67903;52.108;9.358;2023-06-22T14:54:41;31.58;;;28.55;;
64986;SDS011;67903;52.108;9.358;2023-06-22T14:57:27;31.52;;;28.50;;
64986;SDS011;67903;52.108;9.358;2023-06-22T15:00:13;32.00;;;28.85;;
64986;SDS011;67903;52.108;9.358;2023-06-22T15:02:59;30.73;;;27.85;;
64986;SDS011;67903;52.108;9.358;2023-06-22T15:05:45;31.35;;;28.27;;
64986;SDS011;67903;52.108;9.358;2023-06-22T15:08:31;30.33;;;27.30;;
64986;SDS011;67903;52.108;9.358;2023-06-22T15:11:17;27.98;;;25.42;;
64986;SDS011;67903;52.108;9.358;2023-06-22T15:14:03;31.50;;;28.58;;
64986;SDS011;67903;52.108;9.358;2023-06-22T15:16:48;33.28;;;30.08;;
64986;SDS011;67903;52.108;9.358;2023-06-22T15:19:37;32.00;;;29.00;;
64986;SDS011;67903;52.108;9.358;2023-06-22T15:22:24;29.60;;;26.70;;
64986;SDS011;67903;52.108;9.358;2023-06-22T15:25:10;31.77;;;28.65;;
64986;SDS011;67903;52.108;9.358;2023-06-22T15:27:56;35.65;;;32.08;;
64986;SDS011;67903;52.108;9.358;2023-06-22T15:30:42;35.03;;;31.60;;
64986;SDS011;67903;52.108;9.358;2023-06-22T15:33:29;32.60;;;29.45;;
64986;SDS011;67903;52.108;9.358;2023-06-22T15:36:17;33.28;;;30.10;;
64986;SDS011;67903;52.108;9.358;2023-06-22T15:39:03;33.70;;;30.58;;
64986;SDS011;67903;52.108;9.358;2023-06-22T15:41:49;34.17;;;30.77;;
64986;SDS011;67903;52.108;9.358;2023-06-22T15:44:39;32.10;;;29.05;;
64986;SDS011;67903;52.108;9.358;2023-06-22T15:47:24;38.88;;;34.80;;
64986;SDS011;67903;52.108;9.358;2023-06-22T15:50:11;31.73;;;28.92;;
64986;SDS011;67903;52.108;9.358;2023-06-22T15:52:57;37.72;;;33.95;;
64986;SDS011;67903;52.108;9.358;2023-06-22T15:55:43;33.40;;;30.33;;
64986;SDS011;67903;52.108;9.358;2023-06-22T15:58:31;33.58;;;30.17;;
64986;SDS011;67903;52.108;9.358;2023-06-22T16:01:18;31.08;;;28.17;;
64986;SDS011;67903;52.108;9.358;2023-06-22T16:04:04;32.72;;;29.58;;
64986;SDS011;67903;52.108;9.358;2023-06-22T16:06:50;30.85;;;28.05;;
64986;SDS011;67903;52.108;9.358;2023-06-22T16:09:37;31.50;;;28.63;;
64986;SDS011;67903;52.108;9.358;2023-06-22T16:12:22;30.10;;;27.35;;
64986;SDS011;67903;52.108;9.358;2023-06-22T16:15:11;30.63;;;27.83;;
64986;SDS011;67903;52.108;9.358;2023-06-22T16:17:57;30.30;;;27.58;;
64986;SDS011;67903;52.108;9.358;2023-06-22T16:20:43;31.73;;;28.90;;
64986;SDS011;67903;52.108;9.358;2023-06-22T16:23:31;31.33;;;28.42;;